sensor_id;sensor_type;location;lat;lon;timestamp;pressure;altitude;pressure_sealevel;temperature;humidity
55755;BME280;41674;52.290;-1.474;2023-02-18T00:00:15;101498.68;;;8.81;100.00
55755;BME280;41674;52.290;-1.474;2023-02-18T00:02:43;101492.13;;;8.58;100.00
55755;BME280;41674;52.290;-1.474;2023-02-18T00:05:12;101496.68;;;8.71;100.00
55755;BME280;41674;52.290;-1.474;2023-02-18T00:07:41;101492.16;;;8.36;100.00
55755;BME280;41674;52.290;-1.474;2023-02-18T00:10:13;101495.74;;;8.51;100.00
55755;BME280;41674;52.290;-1.474;2023-02-18T00:12:41;101499.18;;;8.55;100.00
55755;BME280;41674;52.290;-1.474;2023-02-18T00:15:10;101495.10;;;8.48;100.00
55755;BME280;41674;52.290;-1.474;2023-02-18T00:17:39;101492.53;;;8.96;100.00
55755;BME280;41674;52.290;-1.474;2023-02-18T00:20:10;101493.31;;;8.83;100.00
55755;BME280;41674;52.290;-1.474;2023-02-18T00:22:38;101494.39;;;8.96;100.00
55755;BME280;41674;52.290;-1.474;2023-02-18T00:25:08;101497.15;;;8.85;100.00
55755;BME280;41674;52.290;-1.474;2023-02-18T00:27:37;101496.96;;;8.71;100.00
55755;BME280;41674;52.290;-1.474;2023-02-18T00:30:09;101494.98;;;8.78;100.00
55755;BME280;41674;52.290;-1.474;2023-02-18T00:32:37;101491.71;;;9.17;100.00
55755;BME280;41674;52.290;-1.474;2023-02-18T00:35:07;101485.53;;;8.77;100.00
55755;BME280;41674;52.290;-1.474;2023-02-18T00:37:36;101485.84;;;8.54;100.00
55755;BME280;41674;52.290;-1.474;2023-02-18T00:40:07;101483.35;;;8.14;100.00
55755;BME280;41674;52.290;-1.474;2023-02-18T00:42:35;101481.24;;;8.34;100.00
55755;BME280;41674;52.290;-1.474;2023-02-18T00:45:06;101486.97;;;8.34;100.00
55755;BME280;41674;52.290;-1.474;2023-02-18T00:47:34;101477.21;;;8.44;100.00
55755;BME280;41674;52.290;-1.474;2023-02-18T00:50:05;101470.75;;;8.42;100.00
55755;BME280;41674;52.290;-1.474;2023-02-18T00:52:34;101471.68;;;8.60;100.00
55755;BME280;41674;52.290;-1.474;2023-02-18T00:55:04;101455.50;;;8.03;100.00
55755;BME280;41674;52.290;-1.474;2023-02-18T00:57:33;101451.01;;;8.88;100.00
55755;BME280;41674;52.290;-1.474;2023-02-18T01:00:03;101456.66;;;8.71;100.00
55755;BME280;41674;52.290;-1.474;2023-02-18T01:02:32;101459.62;;;8.42;100.00
55755;BME280;41674;52.290;-1.474;2023-02-18T01:05:02;101455.91;;;9.11;100.00
55755;BME280;41674;52.290;-1.474;2023-02-18T01:07:31;101444.47;;;8.38;100.00
55755;BME280;41674;52.290;-1.474;2023-02-18T01:10:02;101438.17;;;7.90;100.00
55755;BME280;41674;52.290;-1.474;2023-02-18T01:12:31;101445.22;;;8.07;100.00
55755;BME280;41674;52.290;-1.474;2023-02-18T01:15:00;101445.09;;;8.82;100.00
55755;BME280;41674;52.290;-1.474;2023-02-18T01:17:30;101434.09;;;8.26;100.00
55755;BME280;41674;52.290;-1.474;2023-02-18T01:19:59;101434.67;;;7.83;100.00
55755;BME280;41674;52.290;-1.474;2023-02-18T01:22:29;101433.10;;;7.68;100.00
55755;BME280;41674;52.290;-1.474;2023-02-18T01:24:59;101419.29;;;8.02;100.00
55755;BME280;41674;52.290;-1.474;2023-02-18T01:27:29;101408.11;;;7.65;100.00
55755;BME280;41674;52.290;-1.474;2023-02-18T01:29:58;101395.46;;;7.73;100.00
55755;BME280;41674;52.290;-1.474;2023-02-18T01:32:28;101395.29;;;7.77;100.00
55755;BME280;41674;52.290;-1.474;2023-02-18T01:35:00;101394.10;;;7.53;100.00
55755;BME280;41674;52.290;-1.474;2023-02-18T01:37:27;101382.76;;;7.41;100.00
55755;BME280;41674;52.290;-1.474;2023-02-18T01:39:58;101384.01;;;7.57;100.00
55755;BME280;41674;52.290;-1.474;2023-02-18T01:42:28;101386.40;;;7.74;100.00
55755;BME280;41674;52.290;-1.474;2023-02-18T01:47:26;101381.04;;;7.63;100.00
55755;BME280;41674;52.290;-1.474;2023-02-18T01:49:55;101376.40;;;7.54;100.00
55755;BME280;41674;52.290;-1.474;2023-02-18T01:52:26;101368.91;;;7.61;100.00
55755;BME280;41674;52.290;-1.474;2023-02-18T01:54:56;101361.71;;;7.30;100.00
55755;BME280;41674;52.290;-1.474;2023-02-18T01:57:28;101369.39;;;7.64;100.00
55755;BME280;41674;52.290;-1.474;2023-02-18T01:59:56;101370.23;;;7.79;100.00
55755;BME280;41674;52.290;-1.474;2023-02-18T02:02:26;101372.27;;;7.44;100.00
55755;BME280;41674;52.290;-1.474;2023-02-18T02:04:54;101384.03;;;7.40;100.00
55755;BME280;41674;52.290;-1.474;2023-02-18T02:07:25;101385.99;;;8.08;100.00
55755;BME280;41674;52.290;-1.474;2023-02-18T02:09:54;101382.83;;;7.90;100.00
55755;BME280;41674;52.290;-1.474;2023-02-18T02:12:35;101386.91;;;7.66;100.00
55755;BME280;41674;52.290;-1.474;2023-02-18T02:15:03;101365.92;;;7.66;100.00
55755;BME280;41674;52.290;-1.474;2023-02-18T02:17:30;101370.79;;;7.74;100.00
55755;BME280;41674;52.290;-1.474;2023-02-18T02:20:02;101365.04;;;8.09;100.00
55755;BME280;41674;52.290;-1.474;2023-02-18T02:22:34;101381.32;;;7.38;100.00
55755;BME280;41674;52.290;-1.474;2023-02-18T02:24:57;101385.78;;;7.57;100.00
55755;BME280;41674;52.290;-1.474;2023-02-18T02:27:24;101384.46;;;7.01;100.00
55755;BME280;41674;52.290;-1.474;2023-02-18T02:32:29;101372.63;;;7.47;100.00
55755;BME280;41674;52.290;-1.474;2023-02-18T02:34:53;101373.31;;;7.22;100.00
55755;BME280;41674;52.290;-1.474;2023-02-18T02:37:25;101383.67;;;7.30;100.00
55755;BME280;41674;52.290;-1.474;2023-02-18T02:39:56;101378.02;;;7.32;100.00
55755;BME280;41674;52.290;-1.474;2023-02-18T02:42:25;101377.92;;;7.71;100.00
55755;BME280;41674;52.290;-1.474;2023-02-18T02:44:53;101376.44;;;7.93;100.00
55755;BME280;41674;52.290;-1.474;2023-02-18T02:47:20;101375.74;;;7.41;100.00
55755;BME280;41674;52.290;-1.474;2023-02-18T02:49:51;101375.35;;;7.46;100.00
55755;BME280;41674;52.290;-1.474;2023-02-18T02:52:19;101373.18;;;7.62;100.00
55755;BME280;41674;52.290;-1.474;2023-02-18T02:54:46;101362.89;;;7.48;100.00
55755;BME280;41674;52.290;-1.474;2023-02-18T02:59:49;101355.67;;;7.61;100.00
55755;BME280;41674;52.290;-1.474;2023-02-18T03:02:23;101340.60;;;7.63;100.00
55755;BME280;41674;52.290;-1.474;2023-02-18T03:07:26;101339.25;;;7.45;100.00
55755;BME280;41674;52.290;-1.474;2023-02-18T03:09:56;101343.61;;;7.50;100.00
55755;BME280;41674;52.290;-1.474;2023-02-18T03:12:18;101333.74;;;7.46;100.00
55755;BME280;41674;52.290;-1.474;2023-02-18T03:14:46;101325.80;;;7.40;100.00
55755;BME280;41674;52.290;-1.474;2023-02-18T03:17:17;101327.08;;;7.49;100.00
55755;BME280;41674;52.290;-1.474;2023-02-18T03:19:48;101311.34;;;7.61;100.00
55755;BME280;41674;52.290;-1.474;2023-02-18T03:22:15;101301.44;;;7.75;100.00
55755;BME280;41674;52.290;-1.474;2023-02-18T03:24:42;101295.07;;;7.18;100.00
55755;BME280;41674;52.290;-1.474;2023-02-18T03:27:15;101310.81;;;7.21;100.00
55755;BME280;41674;52.290;-1.474;2023-02-18T03:29:44;101307.88;;;7.12;100.00
55755;BME280;41674;52.290;-1.474;2023-02-18T03:32:12;101315.44;;;7.40;100.00
55755;BME280;41674;52.290;-1.474;2023-02-18T03:34:43;101312.22;;;7.79;100.00
55755;BME280;41674;52.290;-1.474;2023-02-18T03:37:10;101297.23;;;7.69;100.00
55755;BME280;41674;52.290;-1.474;2023-02-18T03:39:45;101295.70;;;7.49;100.00
55755;BME280;41674;52.290;-1.474;2023-02-18T03:42:09;101293.71;;;7.44;100.00
55755;BME280;41674;52.290;-1.474;2023-02-18T03:44:38;101299.59;;;7.41;100.00
55755;BME280;41674;52.290;-1.474;2023-02-18T03:47:08;101290.82;;;7.82;100.00
55755;BME280;41674;52.290;-1.474;2023-02-18T03:49:38;101288.97;;;7.42;100.00
55755;BME280;41674;52.290;-1.474;2023-02-18T03:52:07;101286.26;;;7.85;100.00
55755;BME280;41674;52.290;-1.474;2023-02-18T03:54:37;101276.58;;;7.47;100.00
55755;BME280;41674;52.290;-1.474;2023-02-18T03:57:07;101268.21;;;7.85;100.00
55755;BME280;41674;52.290;-1.474;2023-02-18T03:59:36;101269.29;;;7.07;100.00
55755;BME280;41674;52.290;-1.474;2023-02-18T04:02:06;101248.55;;;7.56;100.00
55755;BME280;41674;52.290;-1.474;2023-02-18T04:04:36;101251.01;;;7.34;100.00
55755;BME280;41674;52.290;-1.474;2023-02-18T04:07:05;101256.69;;;6.97;100.00
55755;BME280;41674;52.290;-1.474;2023-02-18T04:09:34;101268.66;;;7.24;100.00
55755;BME280;41674;52.290;-1.474;2023-02-18T04:12:05;101267.95;;;7.66;100.00
55755;BME280;41674;52.290;-1.474;2023-02-18T04:14:34;101265.49;;;7.33;100.00
55755;BME280;41674;52.290;-1.474;2023-02-18T04:17:03;101267.39;;;7.03;100.00
55755;BME280;41674;52.290;-1.474;2023-02-18T04:19:33;101267.60;;;7.46;100.00
55755;BME280;41674;52.290;-1.474;2023-02-18T04:22:03;101262.35;;;6.94;100.00
55755;BME280;41674;52.290;-1.474;2023-02-18T04:24:32;101269.75;;;6.97;100.00
55755;BME280;41674;52.290;-1.474;2023-02-18T04:27:02;101269.24;;;7.09;100.00
55755;BME280;41674;52.290;-1.474;2023-02-18T04:29:31;101273.66;;;7.59;100.00
55755;BME280;41674;52.290;-1.474;2023-02-18T04:32:02;101274.88;;;7.20;100.00
55755;BME280;41674;52.290;-1.474;2023-02-18T04:34:31;101274.19;;;7.51;100.00
55755;BME280;41674;52.290;-1.474;2023-02-18T04:37:00;101275.81;;;7.61;100.00
55755;BME280;41674;52.290;-1.474;2023-02-18T04:39:30;101272.02;;;7.67;100.00
55755;BME280;41674;52.290;-1.474;2023-02-18T04:42:00;101268.11;;;7.55;100.00
55755;BME280;41674;52.290;-1.474;2023-02-18T04:44:29;101272.90;;;7.87;100.00
55755;BME280;41674;52.290;-1.474;2023-02-18T04:46:59;101273.48;;;8.29;100.00
55755;BME280;41674;52.290;-1.474;2023-02-18T04:49:29;101287.45;;;7.39;100.00
55755;BME280;41674;52.290;-1.474;2023-02-18T04:51:58;101283.55;;;7.72;100.00
55755;BME280;41674;52.290;-1.474;2023-02-18T04:54:28;101283.54;;;7.49;100.00
55755;BME280;41674;52.290;-1.474;2023-02-18T04:56:57;101283.23;;;8.05;100.00
55755;BME280;41674;52.290;-1.474;2023-02-18T04:59:27;101286.08;;;7.47;100.00
55755;BME280;41674;52.290;-1.474;2023-02-18T05:01:57;101270.63;;;7.50;100.00
55755;BME280;41674;52.290;-1.474;2023-02-18T05:04:27;101281.25;;;7.58;100.00
55755;BME280;41674;52.290;-1.474;2023-02-18T05:06:56;101276.24;;;7.20;100.00
55755;BME280;41674;52.290;-1.474;2023-02-18T05:09:26;101277.90;;;7.19;100.00
55755;BME280;41674;52.290;-1.474;2023-02-18T05:11:55;101283.46;;;8.02;100.00
55755;BME280;41674;52.290;-1.474;2023-02-18T05:14:26;101285.23;;;7.87;100.00
55755;BME280;41674;52.290;-1.474;2023-02-18T05:16:54;101278.83;;;7.64;100.00
55755;BME280;41674;52.290;-1.474;2023-02-18T05:19:24;101289.26;;;7.55;100.00
55755;BME280;41674;52.290;-1.474;2023-02-18T05:21:54;101276.13;;;8.41;100.00
55755;BME280;41674;52.290;-1.474;2023-02-18T05:24:24;101272.09;;;7.77;100.00
55755;BME280;41674;52.290;-1.474;2023-02-18T05:26:54;101273.44;;;7.48;100.00
55755;BME280;41674;52.290;-1.474;2023-02-18T05:29:23;101284.54;;;7.69;100.00
55755;BME280;41674;52.290;-1.474;2023-02-18T05:31:52;101269.20;;;7.64;100.00
55755;BME280;41674;52.290;-1.474;2023-02-18T05:34:22;101267.52;;;6.98;100.00
55755;BME280;41674;52.290;-1.474;2023-02-18T05:36:52;101273.27;;;7.11;100.00
55755;BME280;41674;52.290;-1.474;2023-02-18T05:39:21;101281.34;;;7.05;100.00
55755;BME280;41674;52.290;-1.474;2023-02-18T05:41:51;101268.86;;;7.68;100.00
55755;BME280;41674;52.290;-1.474;2023-02-18T05:44:20;101280.55;;;7.37;100.00
55755;BME280;41674;52.290;-1.474;2023-02-18T05:46:50;101271.77;;;7.45;100.00
55755;BME280;41674;52.290;-1.474;2023-02-18T05:49:20;101277.32;;;7.54;100.00
55755;BME280;41674;52.290;-1.474;2023-02-18T05:51:49;101275.79;;;7.33;100.00
55755;BME280;41674;52.290;-1.474;2023-02-18T05:54:19;101261.12;;;7.39;100.00
55755;BME280;41674;52.290;-1.474;2023-02-18T05:56:49;101258.03;;;7.51;100.00
55755;BME280;41674;52.290;-1.474;2023-02-18T05:59:19;101264.11;;;7.47;100.00
55755;BME280;41674;52.290;-1.474;2023-02-18T06:01:48;101264.44;;;7.77;100.00
55755;BME280;41674;52.290;-1.474;2023-02-18T06:04:17;101256.77;;;7.39;100.00
55755;BME280;41674;52.290;-1.474;2023-02-18T06:06:47;101245.99;;;7.52;100.00
55755;BME280;41674;52.290;-1.474;2023-02-18T06:09:17;101242.15;;;7.32;100.00
55755;BME280;41674;52.290;-1.474;2023-02-18T06:11:46;101233.60;;;6.89;100.00
55755;BME280;41674;52.290;-1.474;2023-02-18T06:14:16;101235.91;;;7.37;100.00
55755;BME280;41674;52.290;-1.474;2023-02-18T06:16:46;101234.81;;;7.67;100.00
55755;BME280;41674;52.290;-1.474;2023-02-18T06:19:15;101242.67;;;7.45;100.00
55755;BME280;41674;52.290;-1.474;2023-02-18T06:21:45;101234.94;;;7.40;100.00
55755;BME280;41674;52.290;-1.474;2023-02-18T06:24:14;101246.10;;;7.41;100.00
55755;BME280;41674;52.290;-1.474;2023-02-18T06:26:44;101240.58;;;7.70;100.00
55755;BME280;41674;52.290;-1.474;2023-02-18T06:29:14;101220.42;;;8.28;100.00
55755;BME280;41674;52.290;-1.474;2023-02-18T06:31:43;101230.58;;;8.40;100.00
55755;BME280;41674;52.290;-1.474;2023-02-18T06:34:13;101239.43;;;8.02;100.00
55755;BME280;41674;52.290;-1.474;2023-02-18T06:36:43;101236.87;;;7.86;100.00
55755;BME280;41674;52.290;-1.474;2023-02-18T06:39:12;101243.75;;;7.97;100.00
55755;BME280;41674;52.290;-1.474;2023-02-18T06:41:42;101248.28;;;7.70;100.00
55755;BME280;41674;52.290;-1.474;2023-02-18T06:44:12;101251.23;;;7.78;100.00
55755;BME280;41674;52.290;-1.474;2023-02-18T06:46:41;101241.77;;;8.03;100.00
55755;BME280;41674;52.290;-1.474;2023-02-18T06:49:11;101248.20;;;7.63;100.00
55755;BME280;41674;52.290;-1.474;2023-02-18T06:51:40;101240.90;;;8.09;100.00
55755;BME280;41674;52.290;-1.474;2023-02-18T06:54:10;101251.48;;;8.15;100.00
55755;BME280;41674;52.290;-1.474;2023-02-18T06:56:40;101254.84;;;8.13;100.00
55755;BME280;41674;52.290;-1.474;2023-02-18T06:59:09;101259.09;;;8.16;100.00
55755;BME280;41674;52.290;-1.474;2023-02-18T07:01:39;101265.16;;;8.23;100.00
55755;BME280;41674;52.290;-1.474;2023-02-18T07:04:08;101271.03;;;8.85;100.00
55755;BME280;41674;52.290;-1.474;2023-02-18T07:06:38;101274.79;;;8.40;100.00
55755;BME280;41674;52.290;-1.474;2023-02-18T07:09:08;101273.91;;;8.44;100.00
55755;BME280;41674;52.290;-1.474;2023-02-18T07:11:38;101272.44;;;8.70;100.00
55755;BME280;41674;52.290;-1.474;2023-02-18T07:14:07;101275.25;;;7.91;100.00
55755;BME280;41674;52.290;-1.474;2023-02-18T07:16:37;101270.16;;;7.87;100.00
55755;BME280;41674;52.290;-1.474;2023-02-18T07:19:06;101263.95;;;8.06;100.00
55755;BME280;41674;52.290;-1.474;2023-02-18T07:21:36;101259.37;;;8.12;100.00
55755;BME280;41674;52.290;-1.474;2023-02-18T07:24:06;101252.31;;;7.96;100.00
55755;BME280;41674;52.290;-1.474;2023-02-18T07:26:35;101251.13;;;8.11;100.00
55755;BME280;41674;52.290;-1.474;2023-02-18T07:29:10;101256.85;;;8.29;100.00
55755;BME280;41674;52.290;-1.474;2023-02-18T07:31:34;101260.02;;;8.00;100.00
55755;BME280;41674;52.290;-1.474;2023-02-18T07:34:04;101259.02;;;8.20;100.00
55755;BME280;41674;52.290;-1.474;2023-02-18T07:36:34;101263.49;;;7.95;100.00
55755;BME280;41674;52.290;-1.474;2023-02-18T07:39:03;101256.75;;;8.16;100.00
55755;BME280;41674;52.290;-1.474;2023-02-18T07:41:33;101252.86;;;7.99;100.00
55755;BME280;41674;52.290;-1.474;2023-02-18T07:44:03;101252.74;;;8.37;100.00
55755;BME280;41674;52.290;-1.474;2023-02-18T07:46:32;101255.40;;;7.99;100.00
55755;BME280;41674;52.290;-1.474;2023-02-18T07:49:02;101256.23;;;8.11;100.00
55755;BME280;41674;52.290;-1.474;2023-02-18T07:51:31;101256.12;;;8.27;100.00
55755;BME280;41674;52.290;-1.474;2023-02-18T07:54:01;101258.55;;;8.72;100.00
55755;BME280;41674;52.290;-1.474;2023-02-18T07:56:31;101264.15;;;8.33;100.00
55755;BME280;41674;52.290;-1.474;2023-02-18T07:59:01;101267.54;;;8.20;100.00
55755;BME280;41674;52.290;-1.474;2023-02-18T08:01:30;101269.20;;;8.50;100.00
55755;BME280;41674;52.290;-1.474;2023-02-18T08:04:00;101272.35;;;8.16;100.00
55755;BME280;41674;52.290;-1.474;2023-02-18T08:06:32;101277.05;;;8.02;100.00
55755;BME280;41674;52.290;-1.474;2023-02-18T08:08:59;101281.15;;;8.26;100.00
55755;BME280;41674;52.290;-1.474;2023-02-18T08:11:28;101280.30;;;8.51;100.00
55755;BME280;41674;52.290;-1.474;2023-02-18T08:13:58;101283.05;;;8.80;100.00
55755;BME280;41674;52.290;-1.474;2023-02-18T08:16:28;101286.39;;;8.36;100.00
55755;BME280;41674;52.290;-1.474;2023-02-18T08:18:59;101293.36;;;8.62;100.00
55755;BME280;41674;52.290;-1.474;2023-02-18T08:21:27;101288.67;;;8.95;100.00
55755;BME280;41674;52.290;-1.474;2023-02-18T08:23:57;101280.82;;;8.64;100.00
55755;BME280;41674;52.290;-1.474;2023-02-18T08:26:26;101283.57;;;8.62;100.00
55755;BME280;41674;52.290;-1.474;2023-02-18T08:28:56;101275.95;;;8.36;100.00
55755;BME280;41674;52.290;-1.474;2023-02-18T08:31:27;101279.05;;;8.33;100.00
55755;BME280;41674;52.290;-1.474;2023-02-18T08:33:56;101280.00;;;8.50;100.00
55755;BME280;41674;52.290;-1.474;2023-02-18T08:36:25;101280.22;;;8.54;100.00
55755;BME280;41674;52.290;-1.474;2023-02-18T08:38:55;101280.02;;;8.33;100.00
55755;BME280;41674;52.290;-1.474;2023-02-18T08:41:24;101278.29;;;8.19;100.00
55755;BME280;41674;52.290;-1.474;2023-02-18T08:43:54;101280.49;;;8.08;100.00
55755;BME280;41674;52.290;-1.474;2023-02-18T08:46:23;101274.66;;;8.26;100.00
55755;BME280;41674;52.290;-1.474;2023-02-18T08:48:53;101280.64;;;8.04;100.00
55755;BME280;41674;52.290;-1.474;2023-02-18T08:51:22;101280.66;;;8.48;100.00
55755;BME280;41674;52.290;-1.474;2023-02-18T08:53:52;101285.89;;;8.50;100.00
55755;BME280;41674;52.290;-1.474;2023-02-18T08:56:22;101284.47;;;8.52;100.00
55755;BME280;41674;52.290;-1.474;2023-02-18T08:58:51;101294.18;;;8.19;100.00
55755;BME280;41674;52.290;-1.474;2023-02-18T09:01:21;101302.71;;;8.24;100.00
55755;BME280;41674;52.290;-1.474;2023-02-18T09:03:50;101304.80;;;8.07;100.00
55755;BME280;41674;52.290;-1.474;2023-02-18T09:06:20;101304.23;;;7.91;100.00
55755;BME280;41674;52.290;-1.474;2023-02-18T09:08:50;101307.20;;;8.69;100.00
55755;BME280;41674;52.290;-1.474;2023-02-18T09:11:19;101315.82;;;8.33;100.00
55755;BME280;41674;52.290;-1.474;2023-02-18T09:13:49;101312.47;;;8.99;100.00
55755;BME280;41674;52.290;-1.474;2023-02-18T09:16:19;101308.27;;;8.73;100.00
55755;BME280;41674;52.290;-1.474;2023-02-18T09:18:48;101304.69;;;8.67;100.00
55755;BME280;41674;52.290;-1.474;2023-02-18T09:21:18;101311.70;;;8.36;100.00
55755;BME280;41674;52.290;-1.474;2023-02-18T09:23:48;101315.78;;;8.75;100.00
55755;BME280;41674;52.290;-1.474;2023-02-18T09:26:19;101317.06;;;8.47;100.00
55755;BME280;41674;52.290;-1.474;2023-02-18T09:28:47;101324.54;;;9.13;100.00
55755;BME280;41674;52.290;-1.474;2023-02-18T09:31:18;101331.71;;;8.70;100.00
55755;BME280;41674;52.290;-1.474;2023-02-18T09:33:48;101334.32;;;8.87;100.00
55755;BME280;41674;52.290;-1.474;2023-02-18T09:36:16;101339.29;;;9.11;100.00
55755;BME280;41674;52.290;-1.474;2023-02-18T09:38:46;101337.51;;;9.16;100.00
55755;BME280;41674;52.290;-1.474;2023-02-18T09:41:23;101340.83;;;9.01;100.00
55755;BME280;41674;52.290;-1.474;2023-02-18T09:43:47;101340.73;;;8.75;100.00
55755;BME280;41674;52.290;-1.474;2023-02-18T09:48:44;101345.80;;;9.33;100.00
55755;BME280;41674;52.290;-1.474;2023-02-18T09:51:14;101354.21;;;9.24;100.00
55755;BME280;41674;52.290;-1.474;2023-02-18T09:53:44;101356.75;;;9.28;100.00
55755;BME280;41674;52.290;-1.474;2023-02-18T09:56:15;101361.01;;;9.43;100.00
55755;BME280;41674;52.290;-1.474;2023-02-18T09:58:43;101359.47;;;9.78;100.00
55755;BME280;41674;52.290;-1.474;2023-02-18T10:01:17;101355.89;;;9.53;100.00
55755;BME280;41674;52.290;-1.474;2023-02-18T10:03:41;101360.33;;;9.48;100.00
55755;BME280;41674;52.290;-1.474;2023-02-18T10:06:16;101350.25;;;9.51;100.00
55755;BME280;41674;52.290;-1.474;2023-02-18T10:08:44;101354.41;;;9.37;100.00
55755;BME280;41674;52.290;-1.474;2023-02-18T10:11:12;101354.93;;;9.27;100.00
55755;BME280;41674;52.290;-1.474;2023-02-18T10:13:40;101363.61;;;9.95;100.00
55755;BME280;41674;52.290;-1.474;2023-02-18T10:16:15;101372.78;;;9.51;100.00
55755;BME280;41674;52.290;-1.474;2023-02-18T10:18:41;101382.08;;;9.73;100.00
55755;BME280;41674;52.290;-1.474;2023-02-18T10:21:12;101389.77;;;10.44;100.00
55755;BME280;41674;52.290;-1.474;2023-02-18T10:23:40;101390.05;;;10.76;100.00
55755;BME280;41674;52.290;-1.474;2023-02-18T10:26:12;101400.26;;;10.84;100.00
55755;BME280;41674;52.290;-1.474;2023-02-18T10:28:38;101402.53;;;10.31;100.00
55755;BME280;41674;52.290;-1.474;2023-02-18T10:31:09;101397.63;;;10.91;100.00
55755;BME280;41674;52.290;-1.474;2023-02-18T10:33:43;101399.95;;;10.90;100.00
55755;BME280;41674;52.290;-1.474;2023-02-18T10:36:22;101397.61;;;10.35;100.00
55755;BME280;41674;52.290;-1.474;2023-02-18T10:38:42;101398.03;;;10.50;100.00
55755;BME280;41674;52.290;-1.474;2023-02-18T10:41:11;101389.23;;;10.24;100.00
55755;BME280;41674;52.290;-1.474;2023-02-18T10:43:40;101387.58;;;10.66;100.00
55755;BME280;41674;52.290;-1.474;2023-02-18T10:46:12;101384.77;;;10.49;100.00
55755;BME280;41674;52.290;-1.474;2023-02-18T10:48:46;101383.25;;;10.76;100.00
55755;BME280;41674;52.290;-1.474;2023-02-18T10:51:12;101379.38;;;10.88;100.00
55755;BME280;41674;52.290;-1.474;2023-02-18T10:53:35;101373.91;;;10.17;100.00
55755;BME280;41674;52.290;-1.474;2023-02-18T10:56:05;101375.03;;;10.41;100.00
55755;BME280;41674;52.290;-1.474;2023-02-18T10:58:35;101380.85;;;10.90;100.00
55755;BME280;41674;52.290;-1.474;2023-02-18T11:01:04;101374.16;;;10.20;100.00
55755;BME280;41674;52.290;-1.474;2023-02-18T11:03:40;101374.74;;;10.69;100.00
55755;BME280;41674;52.290;-1.474;2023-02-18T11:06:01;101378.03;;;9.86;100.00
55755;BME280;41674;52.290;-1.474;2023-02-18T11:08:37;101373.41;;;10.05;100.00
55755;BME280;41674;52.290;-1.474;2023-02-18T11:11:07;101377.43;;;10.42;100.00
55755;BME280;41674;52.290;-1.474;2023-02-18T11:13:30;101382.55;;;10.78;100.00
55755;BME280;41674;52.290;-1.474;2023-02-18T11:16:01;101382.49;;;9.98;100.00
55755;BME280;41674;52.290;-1.474;2023-02-18T11:18:36;101383.50;;;10.26;100.00
55755;BME280;41674;52.290;-1.474;2023-02-18T11:21:01;101387.43;;;10.61;100.00
55755;BME280;41674;52.290;-1.474;2023-02-18T11:23:28;101386.83;;;10.37;100.00
55755;BME280;41674;52.290;-1.474;2023-02-18T11:26:00;101384.31;;;11.21;100.00
55755;BME280;41674;52.290;-1.474;2023-02-18T11:28:39;101390.35;;;10.54;100.00
55755;BME280;41674;52.290;-1.474;2023-02-18T11:30:59;101392.14;;;11.09;100.00
55755;BME280;41674;52.290;-1.474;2023-02-18T11:33:32;101391.79;;;10.39;100.00
55755;BME280;41674;52.290;-1.474;2023-02-18T11:35:57;101393.38;;;10.64;100.00
55755;BME280;41674;52.290;-1.474;2023-02-18T11:38:33;101394.94;;;10.29;100.00
55755;BME280;41674;52.290;-1.474;2023-02-18T11:40:59;101390.03;;;9.52;100.00
55755;BME280;41674;52.290;-1.474;2023-02-18T11:43:29;101397.44;;;9.49;100.00
55755;BME280;41674;52.290;-1.474;2023-02-18T11:46:08;101391.87;;;9.76;100.00
55755;BME280;41674;52.290;-1.474;2023-02-18T11:48:30;101392.04;;;9.35;100.00
55755;BME280;41674;52.290;-1.474;2023-02-18T11:50:59;101394.21;;;10.13;100.00
55755;BME280;41674;52.290;-1.474;2023-02-18T11:53:27;101393.85;;;10.14;100.00
55755;BME280;41674;52.290;-1.474;2023-02-18T11:55:54;101392.85;;;10.61;100.00
55755;BME280;41674;52.290;-1.474;2023-02-18T11:58:22;101390.76;;;9.82;100.00
55755;BME280;41674;52.290;-1.474;2023-02-18T12:00:55;101389.88;;;10.13;100.00
55755;BME280;41674;52.290;-1.474;2023-02-18T12:03:29;101396.21;;;10.32;100.00
55755;BME280;41674;52.290;-1.474;2023-02-18T12:05:51;101393.04;;;9.70;100.00
55755;BME280;41674;52.290;-1.474;2023-02-18T12:08:24;101396.78;;;9.98;100.00
55755;BME280;41674;52.290;-1.474;2023-02-18T12:10:52;101394.14;;;9.80;100.00
55755;BME280;41674;52.290;-1.474;2023-02-18T12:13:24;101387.84;;;10.02;100.00
55755;BME280;41674;52.290;-1.474;2023-02-18T12:15:55;101396.15;;;9.98;100.00
55755;BME280;41674;52.290;-1.474;2023-02-18T12:18:27;101390.80;;;10.13;100.00
55755;BME280;41674;52.290;-1.474;2023-02-18T12:23:24;101386.03;;;10.09;100.00
55755;BME280;41674;52.290;-1.474;2023-02-18T12:25:54;101379.50;;;9.90;100.00
55755;BME280;41674;52.290;-1.474;2023-02-18T12:28:29;101377.75;;;9.93;100.00
55755;BME280;41674;52.290;-1.474;2023-02-18T12:30:59;101378.21;;;9.90;100.00
55755;BME280;41674;52.290;-1.474;2023-02-18T12:33:23;101379.79;;;9.87;100.00
55755;BME280;41674;52.290;-1.474;2023-02-18T12:35:55;101371.23;;;9.65;100.00
55755;BME280;41674;52.290;-1.474;2023-02-18T12:38:27;101372.04;;;10.65;100.00
55755;BME280;41674;52.290;-1.474;2023-02-18T12:40:57;101369.36;;;9.94;100.00
55755;BME280;41674;52.290;-1.474;2023-02-18T12:43:23;101359.19;;;10.31;100.00
55755;BME280;41674;52.290;-1.474;2023-02-18T12:45:54;101360.44;;;10.29;100.00
55755;BME280;41674;52.290;-1.474;2023-02-18T12:48:28;101355.36;;;10.67;100.00
55755;BME280;41674;52.290;-1.474;2023-02-18T12:50:54;101359.73;;;11.56;100.00
55755;BME280;41674;52.290;-1.474;2023-02-18T12:53:24;101348.58;;;12.30;100.00
55755;BME280;41674;52.290;-1.474;2023-02-18T12:55:52;101353.18;;;13.09;96.32
55755;BME280;41674;52.290;-1.474;2023-02-18T12:58:28;101348.85;;;13.66;90.99
55755;BME280;41674;52.290;-1.474;2023-02-18T13:00:55;101348.77;;;13.54;88.70
55755;BME280;41674;52.290;-1.474;2023-02-18T13:03:26;101347.70;;;12.50;91.08